Time;durP1;ratioP1;P1;durP2;ratioP2;P2;SDS_P1;SDS_P2;PMS_P1;PMS_P2;Temp;Humidity;BMP_temperature;BMP_pressure;BME280_temperature;BME280_humidity;BME280_pressure;Samples;Min_cycle;Max_cycle;Signal;HPM_P1;HPM_P2
2022/06/23 00:00:34;;;;;;;16.30;14.57;;;;;;;21.85;74.97;99952.91;5031637;28;20396;-74
2022/06/23 00:03:01;;;;;;;17.48;13.25;;;;;;;21.85;75.03;99958.41;5035748;28;20399;-74
2022/06/23 00:05:34;;;;;;;15.80;13.30;;;;;;;21.85;74.77;99955.66;5022370;28;20464;-74
2022/06/23 00:08:00;;;;;;;16.92;13.02;;;;;;;21.86;74.60;99964.75;5030569;28;20767;-74
2022/06/23 00:10:43;;;;;;;21.02;13.15;;;;;;;21.89;74.54;99966.84;5015905;28;20438;-75
2022/06/23 00:13:21;;;;;;;16.95;13.15;;;;;;;21.96;74.32;99959.72;5034586;28;20480;-75
2022/06/23 00:15:50;;;;;;;15.07;13.20;;;;;;;22.00;74.35;99955.13;5030202;28;20873;-74
2022/06/23 00:18:17;;;;;;;16.92;13.45;;;;;;;21.99;74.03;99958.22;5031117;28;20399;-74
2022/06/23 00:20:48;;;;;;;15.77;13.93;;;;;;;21.93;74.45;99957.59;5029496;28;20442;-75
2022/06/23 00:23:20;;;;;;;15.27;13.32;;;;;;;21.92;74.21;99956.00;5040575;28;20496;-74
2022/06/23 00:25:58;;;;;;;15.95;13.10;;;;;;;21.91;73.88;99942.50;5025937;28;20419;-74
2022/06/23 00:28:29;;;;;;;15.90;13.27;;;;;;;21.89;73.87;99942.03;5018072;28;20395;-74
2022/06/23 00:30:59;;;;;;;16.43;13.17;;;;;;;21.86;74.10;99937.16;5030122;28;20928;-75
2022/06/23 00:33:47;;;;;;;15.50;13.03;;;;;;;21.86;74.02;99931.66;5043330;28;20408;-74
2022/06/23 00:36:35;;;;;;;16.63;12.93;;;;;;;21.90;73.96;99932.63;5028705;28;20913;-74
2022/06/23 00:39:02;;;;;;;14.40;12.53;;;;;;;21.90;74.06;99929.88;5029808;28;20391;-75
2022/06/23 00:41:32;;;;;;;13.97;11.90;;;;;;;21.91;74.06;99934.25;5023127;28;20397;-74
2022/06/23 00:44:03;;;;;;;13.23;11.85;;;;;;;21.92;73.92;99933.91;5031205;28;20453;-74
2022/06/23 00:46:43;;;;;;;14.50;12.38;;;;;;;21.99;73.62;99941.66;5029878;28;20419;-74
2022/06/23 00:49:23;;;;;;;14.35;10.38;;;;;;;21.98;73.64;99945.56;5030904;28;20742;-74
2022/06/23 00:51:54;;;;;;;13.17;9.87;;;;;;;21.92;73.72;99953.22;5029925;28;20404;-74
2022/06/23 00:54:26;;;;;;;13.50;11.65;;;;;;;21.82;74.08;99944.47;5021127;28;20438;-74
2022/06/23 00:56:57;;;;;;;12.63;11.27;;;;;;;21.86;74.03;99950.97;5033222;28;20461;-75
2022/06/23 00:59:29;;;;;;;13.73;9.43;;;;;;;21.88;73.48;99955.00;5034863;28;20402;-75
2022/06/23 01:02:03;;;;;;;13.02;9.73;;;;;;;21.87;73.40;99956.13;5034953;28;20731;-74
2022/06/23 01:05:06;;;;;;;14.20;9.43;;;;;;;21.83;73.27;99959.91;5030471;28;20765;-74
2022/06/23 01:07:56;;;;;;;10.10;8.18;;;;;;;21.77;73.32;99962.00;5032647;28;20501;-74
2022/06/23 01:10:32;;;;;;;12.20;8.25;;;;;;;21.73;73.52;99970.13;5034913;28;20390;-74
2022/06/23 01:13:14;;;;;;;12.43;8.48;;;;;;;21.68;73.51;99958.50;5033013;28;20425;-74
2022/06/23 01:15:49;;;;;;;11.50;8.35;;;;;;;21.66;73.60;99961.59;5033326;28;20886;-75
2022/06/23 01:18:23;;;;;;;13.65;8.65;;;;;;;21.64;73.36;99966.59;5016835;28;20403;-74
2022/06/23 01:20:55;;;;;;;11.02;9.15;;;;;;;21.55;73.71;99963.09;5032518;28;20421;-74
2022/06/23 01:23:39;;;;;;;10.98;8.82;;;;;;;21.60;73.63;99962.88;5010910;28;20414;-74
2022/06/23 01:26:29;;;;;;;18.80;11.95;;;;;;;21.59;73.65;99960.47;5015514;28;20420;-75
2022/06/23 01:29:05;;;;;;;13.00;11.30;;;;;;;21.61;73.72;99966.47;5033061;28;20940;-75
2022/06/23 01:32:14;;;;;;;18.33;14.07;;;;;;;21.59;73.89;99968.75;5034431;28;20398;-75
2022/06/23 01:34:52;;;;;;;20.90;14.02;;;;;;;21.39;74.81;99969.44;4987760;28;20751;-74
2022/06/23 01:37:40;;;;;;;20.60;16.50;;;;;;;21.34;75.13;99973.19;5033064;28;20483;-74
2022/06/23 01:40:15;;;;;;;19.92;13.32;;;;;;;21.46;74.61;99969.75;5026927;28;20490;-74
2022/06/23 01:43:00;;;;;;;24.48;16.42;;;;;;;21.50;74.47;99971.53;5033733;28;20398;-74
2022/06/23 01:45:42;;;;;;;26.65;18.70;;;;;;;21.52;74.46;99973.97;5032918;28;20498;-74
2022/06/23 01:48:14;;;;;;;30.45;21.05;;;;;;;21.52;74.58;99979.47;5032799;28;20766;-74
2022/06/23 01:50:50;;;;;;;25.95;20.52;;;;;;;21.49;74.68;99980.94;5033077;28;20460;-74
2022/06/23 01:53:24;;;;;;;25.17;20.88;;;;;;;21.49;74.62;99991.16;5015808;28;20415;-74
2022/06/23 01:56:12;;;;;;;22.60;19.45;;;;;;;21.43;74.85;99995.22;5032126;28;20418;-74
2022/06/23 01:58:47;;;;;;;25.27;19.75;;;;;;;21.38;75.09;99984.38;5032573;28;20419;-74
2022/06/23 02:01:54;;;;;;;21.70;19.38;;;;;;;21.37;74.89;99982.75;5021913;28;20403;-74
2022/06/23 02:05:11;;;;;;;19.73;16.75;;;;;;;21.31;74.92;99989.56;5006146;28;20426;-74
2022/06/23 02:07:51;;;;;;;19.40;17.27;;;;;;;21.51;74.00;99991.63;5032214;28;20418;-74
2022/06/23 02:10:52;;;;;;;17.60;15.80;;;;;;;21.48;73.90;99990.34;5026294;28;20968;-74
2022/06/23 02:13:25;;;;;;;22.20;18.48;;;;;;;21.33;74.43;99988.13;4965182;28;20426;-74
2022/06/23 02:16:15;;;;;;;19.48;16.55;;;;;;;21.27;74.41;99992.19;5033432;28;20402;-74
2022/06/23 02:18:55;;;;;;;18.97;17.07;;;;;;;21.18;74.50;99985.84;5012871;28;20397;-74
2022/06/23 02:21:39;;;;;;;21.33;19.05;;;;;;;21.14;74.74;99990.44;5031811;28;20833;-74
2022/06/23 02:24:10;;;;;;;21.55;19.33;;;;;;;21.08;74.70;99992.50;5031497;28;20895;-74
2022/06/23 02:26:57;;;;;;;20.00;18.00;;;;;;;21.01;74.96;99994.91;5033420;28;20391;-74
2022/06/23 02:29:32;;;;;;;20.55;17.67;;;;;;;20.87;75.26;99999.00;5032142;28;20763;-74
2022/06/23 02:32:10;;;;;;;22.35;19.67;;;;;;;20.88;75.39;100001.41;5031612;28;20423;-73
2022/06/23 02:34:51;;;;;;;22.00;18.92;;;;;;;20.96;75.15;100005.31;5030608;28;20398;-74
2022/06/23 02:37:51;;;;;;;20.83;18.40;;;;;;;20.95;75.22;100001.72;5032234;28;20419;-74
2022/06/23 02:40:30;;;;;;;18.52;16.67;;;;;;;20.95;75.28;100010.00;5033231;28;20384;-74
2022/06/23 02:43:18;;;;;;;19.33;16.85;;;;;;;20.98;75.02;100000.25;5031037;28;20407;-74
2022/06/23 02:46:20;;;;;;;17.42;15.80;;;;;;;20.90;75.47;100009.34;5030900;28;20894;-74
2022/06/23 02:48:46;;;;;;;17.10;15.32;;;;;;;20.84;75.57;100005.97;5010170;28;20398;-74
2022/06/23 02:52:01;;;;;;;23.93;14.43;;;;;;;20.69;76.07;100004.50;5013360;28;20423;-74
2022/06/23 02:54:59;;;;;;;17.30;15.52;;;;;;;20.61;76.45;100004.50;5022609;28;20957;-74
2022/06/23 02:57:24;;;;;;;14.50;13.10;;;;;;;20.69;76.05;100001.72;5034601;28;20448;-74
2022/06/23 02:59:56;;;;;;;16.43;13.00;;;;;;;20.75;75.71;99998.84;5031249;28;20387;-74
2022/06/23 03:02:37;;;;;;;12.05;10.93;;;;;;;20.77;75.44;99997.38;5029948;28;20485;-74
2022/06/23 03:05:21;;;;;;;11.75;10.63;;;;;;;20.80;75.15;99985.72;5015627;28;20490;-74
2022/06/23 03:08:01;;;;;;;10.40;9.70;;;;;;;20.80;74.71;100002.22;5002136;28;20446;-74
2022/06/23 03:10:33;;;;;;;10.48;9.68;;;;;;;20.79;73.79;99992.34;5029848;28;20418;-74
2022/06/23 03:13:09;;;;;;;10.50;9.60;;;;;;;20.75;73.91;99996.09;5031208;28;20395;-74
2022/06/23 03:15:45;;;;;;;11.55;10.65;;;;;;;20.70;73.55;99992.34;5031400;28;20906;-74
2022/06/23 03:18:18;;;;;;;10.20;9.30;;;;;;;20.65;73.86;99995.25;5029495;28;20502;-74
2022/06/23 03:20:56;;;;;;;9.70;8.90;;;;;;;20.57;73.96;99995.25;5024373;28;20422;-74
2022/06/23 03:23:37;;;;;;;10.73;9.73;;;;;;;20.50;73.79;100006.72;5015914;28;20409;-74
2022/06/23 03:26:07;;;;;;;11.10;9.27;;;;;;;20.54;73.64;100009.66;5032244;28;20752;-74
2022/06/23 03:28:46;;;;;;;10.60;8.85;;;;;;;20.55;73.67;100008.50;5032151;28;20590;-74
2022/06/23 03:31:22;;;;;;;9.32;8.40;;;;;;;20.54;73.59;100012.41;5023256;28;20413;-74
2022/06/23 03:33:58;;;;;;;10.07;9.18;;;;;;;20.53;73.60;100016.28;5040606;28;20395;-74
2022/06/23 03:37:02;;;;;;;8.88;7.90;;;;;;;20.54;73.59;100013.22;5014067;28;20422;-74
2022/06/23 03:42:50;;;;;;;12.05;7.40;;;;;;;20.51;73.62;100021.31;5033879;28;20382;-74
2022/06/23 03:45:33;;;;;;;10.53;7.70;;;;;;;20.52;73.79;100020.97;5031862;28;20395;-74
2022/06/23 03:48:08;;;;;;;7.75;7.05;;;;;;;20.55;73.84;100030.53;5010828;28;20401;-74
2022/06/23 03:50:50;;;;;;;11.65;7.43;;;;;;;20.56;73.73;100032.97;5040036;28;20480;-74
2022/06/23 03:53:21;;;;;;;8.82;7.05;;;;;;;20.50;73.99;100030.69;5031499;28;20466;-74
2022/06/23 03:55:53;;;;;;;11.02;6.47;;;;;;;20.49;74.24;100035.38;5026478;28;20414;-74
2022/06/23 03:58:27;;;;;;;9.50;6.20;;;;;;;20.50;74.23;100036.19;5031455;28;20474;-74
2022/06/23 04:01:44;;;;;;;9.10;6.25;;;;;;;20.50;74.31;100034.25;5040548;28;20407;-74
2022/06/23 04:04:38;;;;;;;9.85;6.65;;;;;;;20.56;73.92;100029.41;4931408;29;20431;-74
2022/06/23 04:07:29;;;;;;;7.85;7.07;;;;;;;20.60;73.69;100033.16;4930061;29;20493;-74
2022/06/23 04:10:07;;;;;;;8.57;6.57;;;;;;;20.66;73.48;100026.34;5019599;28;20427;-74
2022/06/23 04:12:34;;;;;;;7.70;6.22;;;;;;;20.67;73.28;100037.06;5031244;28;20391;-74
2022/06/23 04:15:13;;;;;;;9.18;7.32;;;;;;;20.69;72.99;100040.28;5030438;28;20431;-74
2022/06/23 04:17:43;;;;;;;9.00;8.05;;;;;;;20.67;73.06;100042.56;5026705;28;20814;-74
2022/06/23 04:20:12;;;;;;;11.85;8.82;;;;;;;20.64;73.00;100045.97;5029621;28;20770;-74
2022/06/23 04:23:01;;;;;;;11.77;7.80;;;;;;;20.63;72.75;100043.50;5031484;28;20391;-74
2022/06/23 04:25:39;;;;;;;9.70;7.65;;;;;;;20.61;72.79;100051.28;5027872;28;20407;-74
2022/06/23 04:28:04;;;;;;;12.25;7.97;;;;;;;20.60;72.85;100055.97;5030018;28;20430;-74
2022/06/23 04:30:36;;;;;;;9.27;7.25;;;;;;;20.59;72.79;100043.34;5034430;28;20474;-74
2022/06/23 04:33:07;;;;;;;11.80;7.50;;;;;;;20.59;72.99;100042.53;5031330;28;20395;-74
2022/06/23 04:35:36;;;;;;;8.95;7.45;;;;;;;20.62;72.93;100048.19;5027957;28;20403;-74
2022/06/23 04:38:10;;;;;;;9.25;6.70;;;;;;;20.65;72.87;100041.22;5019387;28;20414;-74
2022/06/23 04:40:41;;;;;;;6.80;6.10;;;;;;;20.63;72.94;100046.25;5012719;28;20395;-74
2022/06/23 04:43:27;;;;;;;9.90;5.75;;;;;;;20.63;73.02;100044.31;5023618;28;20876;-74
2022/06/23 04:46:00;;;;;;;9.32;5.30;;;;;;;20.64;73.08;100048.72;5016860;28;20497;-74
2022/06/23 04:48:36;;;;;;;7.57;5.38;;;;;;;20.64;73.25;100043.22;5028300;28;20418;-74
2022/06/23 04:51:16;;;;;;;8.40;5.13;;;;;;;20.64;73.36;100037.69;5030359;28;20864;-74
2022/06/23 04:53:50;;;;;;;8.77;4.90;;;;;;;20.67;73.38;100039.81;5029646;28;20403;-74
2022/06/23 04:56:15;;;;;;;8.30;4.25;;;;;;;20.71;73.55;100042.72;5010649;28;20407;-74
2022/06/23 04:58:49;;;;;;;8.43;4.60;;;;;;;20.77;73.46;100035.09;5029503;28;20418;-74
2022/06/23 05:01:18;;;;;;;7.73;4.27;;;;;;;20.79;73.25;100039.16;5009295;28;20407;-74
2022/06/23 05:03:49;;;;;;;11.77;4.07;;;;;;;20.82;73.46;100037.69;5030579;28;20731;-74
2022/06/23 05:06:36;;;;;;;8.10;4.03;;;;;;;20.85;73.39;100037.84;5026262;28;20422;-74
2022/06/23 05:09:10;;;;;;;8.32;4.20;;;;;;;20.89;73.46;100044.34;5028809;28;20406;-74
2022/06/23 05:11:47;;;;;;;7.68;4.13;;;;;;;20.91;73.66;100044.03;5028558;28;20768;-74
2022/06/23 05:14:19;;;;;;;7.65;4.22;;;;;;;20.94;73.81;100043.41;5030059;28;20410;-73
2022/06/23 05:16:51;;;;;;;7.72;4.10;;;;;;;20.98;73.78;100047.09;5010872;28;20418;-74
2022/06/23 05:19:26;;;;;;;5.72;4.03;;;;;;;21.01;73.77;100049.22;5032424;28;20528;-73
2022/06/23 05:21:55;;;;;;;8.60;3.80;;;;;;;21.03;73.82;100053.28;5023470;28;20898;-73
2022/06/23 05:24:26;;;;;;;6.22;4.25;;;;;;;21.08;73.78;100058.63;5030402;28;20387;-74
2022/06/23 05:26:54;;;;;;;5.80;3.75;;;;;;;21.11;73.72;100055.25;5024929;28;20433;-74
2022/06/23 05:29:34;;;;;;;9.70;3.60;;;;;;;21.14;73.62;100062.06;5005763;28;20455;-74
2022/06/23 05:32:22;;;;;;;5.85;3.20;;;;;;;21.16;73.27;100057.84;5027491;28;20750;-74
2022/06/23 05:35:21;;;;;;;6.78;3.15;;;;;;;21.20;73.54;100061.59;5030050;28;20417;-74
2022/06/23 05:37:56;;;;;;;8.85;3.40;;;;;;;21.20;73.44;100066.28;5021774;28;20459;-74
2022/06/23 05:40:44;;;;;;;7.85;3.65;;;;;;;21.25;73.20;100063.34;5030837;28;20403;-74
2022/06/23 05:43:11;;;;;;;6.30;3.55;;;;;;;21.30;73.14;100067.88;5021732;28;20499;-74
2022/06/23 05:45:41;;;;;;;8.23;3.53;;;;;;;21.19;73.48;100067.41;5034181;28;20391;-74
2022/06/23 05:48:11;;;;;;;7.85;3.72;;;;;;;21.20;73.59;100063.53;5031729;28;20465;-74
2022/06/23 05:50:59;;;;;;;6.72;4.05;;;;;;;21.24;73.32;100067.22;5032383;28;20403;-74
2022/06/23 05:53:34;;;;;;;5.43;3.35;;;;;;;21.31;73.19;100070.31;5032633;28;20866;-74
2022/06/23 05:56:14;;;;;;;5.95;3.70;;;;;;;21.38;72.89;100078.09;5031391;28;20897;-74
2022/06/23 05:58:49;;;;;;;7.90;3.72;;;;;;;21.32;73.35;100068.38;5020962;28;20422;-74
2022/06/23 06:01:55;;;;;;;8.68;3.47;;;;;;;21.29;73.39;100058.81;5023780;28;20403;-73
2022/06/23 06:04:28;;;;;;;6.60;3.90;;;;;;;21.27;73.64;100066.59;4968370;28;20403;-74
2022/06/23 06:06:53;;;;;;;5.43;3.72;;;;;;;21.31;73.37;100058.47;5015113;28;20485;-75
2022/06/23 06:09:35;;;;;;;8.87;3.60;;;;;;;21.34;73.38;100061.38;5031777;28;21256;-74
2022/06/23 06:12:05;;;;;;;6.47;3.90;;;;;;;21.37;73.61;100060.72;5033195;28;20487;-75
2022/06/23 06:14:35;;;;;;;8.83;3.93;;;;;;;21.43;73.26;100051.19;5028915;28;20403;-72
2022/06/23 06:17:01;;;;;;;8.32;3.80;;;;;;;21.50;73.29;100050.69;5032774;28;20550;-73
2022/06/23 06:19:29;;;;;;;5.85;3.55;;;;;;;21.53;73.13;100050.84;5033531;28;20848;-73
2022/06/23 06:22:14;;;;;;;4.97;3.20;;;;;;;21.59;72.76;100044.00;5014202;28;20418;-73
2022/06/23 06:24:44;;;;;;;7.28;3.25;;;;;;;21.63;72.29;100044.97;5032187;28;20453;-73
2022/06/23 06:27:12;;;;;;;9.57;3.72;;;;;;;21.68;71.82;100055.00;5032903;28;20497;-73
2022/06/23 06:29:42;;;;;;;6.55;3.03;;;;;;;21.68;71.77;100058.59;5029960;28;20450;-73
2022/06/23 06:32:28;;;;;;;8.13;3.33;;;;;;;21.72;71.64;100048.53;5030306;28;20398;-73
2022/06/23 06:35:13;;;;;;;5.00;3.25;;;;;;;21.77;71.62;100049.50;5032307;28;20810;-73
2022/06/23 06:37:44;;;;;;;7.72;3.80;;;;;;;21.79;71.53;100047.19;5031737;28;20411;-73
2022/06/23 06:40:11;;;;;;;8.90;3.90;;;;;;;21.81;71.84;100059.50;5033247;28;20409;-73
2022/06/23 06:42:41;;;;;;;6.88;3.25;;;;;;;21.86;71.71;100061.31;5027767;28;20423;-73
2022/06/23 06:45:10;;;;;;;6.15;3.20;;;;;;;21.87;71.46;100062.91;5029058;28;20481;-73
2022/06/23 06:47:39;;;;;;;11.07;3.20;;;;;;;21.89;71.33;100058.72;5031519;28;20403;-73
2022/06/23 06:50:19;;;;;;;5.18;3.42;;;;;;;21.93;70.96;100056.91;5033026;28;20879;-73
2022/06/23 06:52:45;;;;;;;3.85;2.90;;;;;;;21.95;70.93;100060.16;5032372;28;20395;-73
2022/06/23 06:55:22;;;;;;;7.25;2.90;;;;;;;21.99;70.91;100061.13;5031370;28;20912;-73
2022/06/23 06:58:05;;;;;;;6.40;3.08;;;;;;;22.04;70.73;100065.63;5033061;28;20407;-73
2022/06/23 07:00:38;;;;;;;5.97;2.75;;;;;;;22.09;70.70;100063.53;5026015;28;20425;-73
2022/06/23 07:03:06;;;;;;;7.43;3.10;;;;;;;22.15;70.48;100064.16;5032541;28;20407;-73
2022/06/23 07:05:40;;;;;;;9.80;3.10;;;;;;;22.17;70.35;100061.84;5031735;28;20459;-73
2022/06/23 07:08:23;;;;;;;4.93;3.25;;;;;;;22.21;70.41;100057.28;5016908;28;20929;-73
2022/06/23 07:10:55;;;;;;;5.38;3.25;;;;;;;22.22;70.34;100059.75;5029957;28;20917;-73
2022/06/23 07:13:35;;;;;;;10.63;3.20;;;;;;;22.28;70.04;100059.53;5028454;28;20457;-73
2022/06/23 07:16:06;;;;;;;8.65;3.00;;;;;;;22.36;69.84;100073.28;5032403;28;20500;-73
2022/06/23 07:18:58;;;;;;;5.57;2.60;;;;;;;22.43;69.32;100068.06;5017708;28;20418;-73
2022/06/23 07:21:55;;;;;;;7.97;3.08;;;;;;;22.49;69.46;100065.94;5032455;28;20394;-73
2022/06/23 07:24:50;;;;;;;10.27;3.33;;;;;;;22.56;69.25;100061.47;4997902;28;20763;-73
2022/06/23 07:27:24;;;;;;;5.25;3.13;;;;;;;22.59;69.24;100055.28;4999881;28;20418;-74
2022/06/23 07:30:12;;;;;;;7.90;3.53;;;;;;;22.62;68.95;100048.31;5032048;28;20472;-73
2022/06/23 07:32:44;;;;;;;6.25;2.75;;;;;;;22.69;68.84;100056.88;5012187;28;20494;-74
2022/06/23 07:35:19;;;;;;;4.88;2.72;;;;;;;22.77;68.51;100060.75;5032417;28;20513;-74
2022/06/23 07:37:58;;;;;;;4.20;2.53;;;;;;;22.80;68.43;100060.88;5014398;28;20415;-74
2022/06/23 07:40:27;;;;;;;4.78;2.63;;;;;;;22.87;67.87;100063.09;5013934;28;20430;-73
2022/06/23 07:43:07;;;;;;;5.93;2.53;;;;;;;22.91;67.84;100062.13;5007783;28;20843;-73
2022/06/23 07:45:46;;;;;;;7.38;2.67;;;;;;;22.92;67.94;100057.41;5026301;28;20438;-73
2022/06/23 07:48:11;;;;;;;7.93;2.40;;;;;;;22.90;67.77;100059.69;5016839;28;20486;-73
2022/06/23 07:50:37;;;;;;;5.83;2.80;;;;;;;22.93;67.38;100057.06;5032150;28;20478;-73
2022/06/23 07:53:02;;;;;;;6.97;2.37;;;;;;;23.02;67.01;100048.72;5030759;28;20403;-72
2022/06/23 07:55:38;;;;;;;6.28;2.53;;;;;;;23.03;66.72;100050.31;5031866;28;20482;-73
2022/06/23 07:58:04;;;;;;;6.72;2.78;;;;;;;23.11;66.31;100058.53;5014314;28;20399;-73
2022/06/23 08:00:33;;;;;;;7.23;2.73;;;;;;;23.15;66.23;100039.34;5031798;28;20402;-72
2022/06/23 08:03:03;;;;;;;8.43;2.80;;;;;;;23.18;65.82;100035.88;5030363;28;20906;-72
2022/06/23 08:05:39;;;;;;;3.88;2.38;;;;;;;23.20;65.64;100036.34;5031673;28;20885;-73
2022/06/23 08:08:07;;;;;;;6.07;1.98;;;;;;;23.24;65.14;100037.28;5031760;28;20438;-73
2022/06/23 08:10:33;;;;;;;6.53;2.15;;;;;;;23.31;64.81;100033.97;5013767;28;20427;-73
2022/06/23 08:13:06;;;;;;;6.65;2.20;;;;;;;23.34;64.57;100031.34;5030608;28;20418;-73
2022/06/23 08:18:39;;;;;;;4.50;1.90;;;;;;;23.56;64.10;100024.63;5031622;28;20928;-73
2022/06/23 08:21:13;;;;;;;7.50;2.40;;;;;;;23.61;63.34;100022.44;5031748;28;20383;-73
2022/06/23 08:23:48;;;;;;;7.10;1.98;;;;;;;23.67;62.98;100023.06;5030653;28;20840;-73
2022/06/23 08:26:16;;;;;;;6.17;2.17;;;;;;;23.75;63.08;100022.13;5014871;28;20445;-73
2022/06/23 08:28:43;;;;;;;5.32;1.77;;;;;;;23.81;62.68;100015.22;5031410;28;20391;-73
2022/06/23 08:31:08;;;;;;;5.93;2.22;;;;;;;23.92;62.20;100007.28;5031720;28;20451;-73
2022/06/23 08:33:33;;;;;;;4.53;2.20;;;;;;;23.99;62.16;100016.66;5030279;28;20443;-73
2022/06/23 08:36:07;;;;;;;5.78;1.75;;;;;;;23.99;61.52;100004.75;5010659;28;20400;-73
2022/06/23 08:38:42;;;;;;;7.53;2.28;;;;;;;24.08;61.04;100002.69;5021849;28;20486;-73
2022/06/23 08:41:19;;;;;;;5.22;1.83;;;;;;;24.15;61.28;99991.88;5031037;28;20444;-73
2022/06/23 08:43:59;;;;;;;5.57;1.70;;;;;;;24.32;60.48;99985.28;5030038;28;20421;-73
2022/06/23 08:46:31;;;;;;;4.70;2.00;;;;;;;24.44;59.93;99985.28;5031386;28;20402;-73
2022/06/23 08:49:02;;;;;;;4.82;2.08;;;;;;;24.68;59.17;99986.03;5031324;28;20387;-73
2022/06/23 08:51:39;;;;;;;6.78;2.20;;;;;;;24.86;58.77;99989.38;5012277;28;20457;-73
2022/06/23 08:54:19;;;;;;;7.18;2.03;;;;;;;24.87;58.80;99999.28;5013568;28;20383;-73
2022/06/23 08:57:08;;;;;;;5.30;2.10;;;;;;;24.94;58.74;99987.59;5013513;28;20442;-73
2022/06/23 09:00:13;;;;;;;7.95;2.15;;;;;;;25.09;58.72;99992.41;5013437;28;20548;-73
2022/06/23 09:02:58;;;;;;;5.55;2.00;;;;;;;25.17;58.59;99986.72;5025734;28;20497;-73
2022/06/23 09:05:46;;;;;;;3.38;1.55;;;;;;;25.27;58.11;99986.19;5030938;28;20414;-73
2022/06/23 09:08:21;;;;;;;4.88;1.63;;;;;;;25.40;57.38;99986.13;5031128;28;20797;-73
2022/06/23 09:11:01;;;;;;;4.97;2.10;;;;;;;25.48;56.58;99985.97;5029355;28;20418;-73
2022/06/23 09:13:33;;;;;;;4.47;2.22;;;;;;;25.55;56.25;99982.63;5000775;28;20496;-73
2022/06/23 09:16:14;;;;;;;3.95;2.25;;;;;;;25.66;56.36;99975.38;5017117;28;20445;-73
2022/06/23 09:18:52;;;;;;;4.10;1.80;;;;;;;25.72;56.47;99979.47;5034696;28;20390;-73
2022/06/23 09:21:46;;;;;;;4.57;2.08;;;;;;;26.01;56.20;99976.28;5023824;28;20411;-73
2022/06/23 09:24:17;;;;;;;9.60;2.50;;;;;;;26.19;54.90;99963.66;5034629;28;20750;-73
2022/06/23 09:26:48;;;;;;;6.80;2.40;;;;;;;26.30;55.04;99964.72;5025646;28;20506;-73
2022/06/23 09:29:37;;;;;;;7.18;2.28;;;;;;;26.46;54.60;99961.06;5026703;28;20403;-73
2022/06/23 09:32:40;;;;;;;9.52;2.35;;;;;;;26.70;53.75;99969.16;5031120;28;20517;-73
2022/06/23 09:35:42;;;;;;;2.85;2.00;;;;;;;26.88;53.34;99961.22;5032714;28;20498;-73
2022/06/23 09:38:16;;;;;;;5.18;2.47;;;;;;;27.11;52.86;99962.91;5030701;28;20425;-73
2022/06/23 09:41:00;;;;;;;6.07;1.98;;;;;;;27.27;52.33;99960.81;5031413;28;20411;-73
2022/06/23 09:44:04;;;;;;;5.38;2.30;;;;;;;27.37;52.01;99945.50;5034380;28;20395;-73
2022/06/23 09:46:35;;;;;;;4.28;2.05;;;;;;;27.54;51.38;99947.84;4983385;28;20411;-73
2022/06/23 09:49:27;;;;;;;5.40;2.37;;;;;;;27.68;51.85;99944.50;5033632;28;20403;-73
2022/06/23 09:52:08;;;;;;;6.13;2.42;;;;;;;27.97;51.07;99942.97;5023637;28;20406;-73
2022/06/23 09:54:54;;;;;;;6.88;2.20;;;;;;;28.28;50.79;99934.34;5020483;28;20406;-72
2022/06/23 09:57:57;;;;;;;6.32;2.40;;;;;;;28.62;50.17;99933.22;5013730;28;20424;-73
2022/06/23 10:00:38;;;;;;;6.90;2.58;;;;;;;29.22;48.45;99930.38;5033355;28;20801;-73
2022/06/23 10:03:06;;;;;;;7.65;2.58;;;;;;;30.35;45.61;99926.63;5033803;28;20395;-73
2022/06/23 10:05:43;;;;;;;5.25;2.28;;;;;;;32.26;40.55;99929.09;5033167;28;20407;-73
2022/06/23 10:08:36;;;;;;;4.78;1.80;;;;;;;33.08;38.41;99929.63;5032826;28;20514;-73
2022/06/23 10:11:18;;;;;;;5.82;2.45;;;;;;;33.86;37.87;99932.75;5033306;28;20399;-73
2022/06/23 10:14:00;;;;;;;7.60;2.45;;;;;;;34.49;36.41;99934.16;5030713;28;20399;-71
2022/06/23 10:16:50;;;;;;;7.43;2.30;;;;;;;35.16;35.41;99935.41;5014943;28;20430;-70
2022/06/23 10:19:45;;;;;;;4.75;2.10;;;;;;;35.84;34.34;99930.34;5027318;28;20441;-70
2022/06/23 10:22:49;;;;;;;5.60;2.20;;;;;;;35.09;34.63;99918.56;5033224;28;20406;-71
2022/06/23 10:25:30;;;;;;;5.27;2.40;;;;;;;35.43;34.52;99920.09;4990865;28;20458;-70
2022/06/23 10:28:27;;;;;;;9.43;2.60;;;;;;;35.36;33.75;99923.03;5027388;28;20424;-70
2022/06/23 10:31:00;;;;;;;7.50;2.38;;;;;;;34.76;35.01;99928.66;5029645;28;20407;-70
2022/06/23 10:33:53;;;;;;;5.15;2.30;;;;;;;35.41;33.62;99924.56;5031193;28;20972;-70
2022/06/23 10:36:31;;;;;;;5.30;2.77;;;;;;;35.65;33.29;99925.44;5028539;28;20762;-70
2022/06/23 10:39:12;;;;;;;10.93;2.37;;;;;;;33.48;36.89;99917.78;5034291;28;20399;-70
2022/06/23 10:41:46;;;;;;;5.43;2.20;;;;;;;32.44;38.76;99921.44;5031440;28;20522;-71
2022/06/23 10:44:11;;;;;;;5.40;2.10;;;;;;;34.82;35.04;99910.88;5030134;28;20422;-70
2022/06/23 10:46:42;;;;;;;4.60;2.03;;;;;;;37.09;31.51;99910.63;5030829;28;20418;-70
2022/06/23 10:49:51;;;;;;;6.43;2.03;;;;;;;37.97;29.84;99899.25;5030742;28;20407;-70
2022/06/23 10:52:39;;;;;;;6.13;2.28;;;;;;;37.73;29.80;99898.63;5026148;28;20403;-70
2022/06/23 10:55:29;;;;;;;8.27;2.90;;;;;;;35.28;33.18;99899.00;5020613;28;20410;-70
2022/06/23 10:58:08;;;;;;;5.72;2.35;;;;;;;35.51;33.68;99889.78;5003650;28;20422;-71
2022/06/23 11:00:52;;;;;;;5.63;2.25;;;;;;;36.92;31.46;99889.16;5030606;28;20402;-71
2022/06/23 11:03:32;;;;;;;5.00;2.20;;;;;;;36.63;32.36;99889.00;5020041;28;20407;-71
2022/06/23 11:06:13;;;;;;;5.45;1.75;;;;;;;38.37;29.45;99885.63;5003895;28;20430;-71
2022/06/23 11:08:41;;;;;;;5.38;2.20;;;;;;;39.37;27.80;99899.22;5022195;28;20397;-71
2022/06/23 11:11:37;;;;;;;5.07;2.05;;;;;;;39.69;27.27;99892.53;5031539;28;20452;-71
2022/06/23 11:14:29;;;;;;;4.43;2.00;;;;;;;39.99;27.03;99887.44;5029843;28;20403;-71
2022/06/23 11:17:18;;;;;;;6.43;2.10;;;;;;;40.24;26.54;99884.56;5030064;28;20430;-71
2022/06/23 11:19:53;;;;;;;5.22;2.20;;;;;;;40.60;25.66;99872.72;5014437;28;20411;-71
2022/06/23 11:22:28;;;;;;;6.68;2.33;;;;;;;40.06;25.98;99873.00;5031288;28;20874;-71
2022/06/23 11:25:13;;;;;;;7.38;2.50;;;;;;;39.61;26.91;99859.16;5031360;28;20913;-71
2022/06/23 11:28:00;;;;;;;5.63;2.50;;;;;;;38.45;27.71;99857.91;5027150;28;20418;-71
2022/06/23 11:30:42;;;;;;;5.97;2.60;;;;;;;38.71;27.60;99849.03;5017924;28;20531;-71
2022/06/23 11:33:22;;;;;;;5.30;2.22;;;;;;;39.39;26.73;99859.06;5013892;28;20403;-71
2022/06/23 11:35:57;;;;;;;5.88;2.00;;;;;;;39.24;26.99;99849.44;5031465;28;20407;-71
2022/06/23 11:38:37;;;;;;;5.65;2.25;;;;;;;39.88;26.56;99848.13;5028066;28;20403;-72
2022/06/23 11:41:27;;;;;;;6.15;2.20;;;;;;;40.69;25.10;99838.66;5031596;28;20410;-72
2022/06/23 11:44:20;;;;;;;5.63;2.27;;;;;;;41.37;24.28;99832.69;5031857;28;20399;-72
2022/06/23 11:47:00;;;;;;;4.72;2.67;;;;;;;41.00;24.09;99821.66;5028059;28;20840;-72
2022/06/23 11:49:47;;;;;;;5.90;2.53;;;;;;;41.10;24.28;99826.13;5031873;28;20554;-72
2022/06/23 11:52:34;;;;;;;8.88;2.17;;;;;;;41.19;24.30;99823.28;5030872;28;20902;-72
2022/06/23 11:55:43;;;;;;;7.65;2.40;;;;;;;41.63;23.38;99816.16;5030825;28;20497;-71
2022/06/23 11:58:17;;;;;;;6.60;2.00;;;;;;;41.76;23.23;99816.03;4951946;28;20421;-71
2022/06/23 12:00:45;;;;;;;6.50;1.83;;;;;;;42.08;22.39;99811.78;5022802;28;20771;-71
2022/06/23 12:03:45;;;;;;;4.93;1.90;;;;;;;42.06;22.35;99809.38;5031701;28;20474;-72
2022/06/23 12:06:28;;;;;;;6.90;1.70;;;;;;;41.72;22.89;99804.00;5031295;28;20430;-72
2022/06/23 12:09:01;;;;;;;6.40;1.70;;;;;;;41.62;22.87;99799.56;5029357;28;20403;-71
2022/06/23 12:11:30;;;;;;;6.93;1.80;;;;;;;41.51;22.46;99805.72;5013878;28;20468;-71
2022/06/23 12:13:59;;;;;;;5.37;1.90;;;;;;;39.80;24.68;99799.34;5019605;28;20496;-72
2022/06/23 12:16:24;;;;;;;6.95;2.00;;;;;;;38.25;26.70;99801.44;5013847;28;20407;-72
2022/06/23 12:18:56;;;;;;;5.70;2.03;;;;;;;37.31;28.15;99789.41;5018555;28;20423;-72
2022/06/23 12:21:51;;;;;;;7.67;2.30;;;;;;;38.45;26.67;99799.25;4999599;28;20756;-72
2022/06/23 12:24:32;;;;;;;5.10;1.67;;;;;;;39.17;25.82;99790.13;5029188;28;20456;-72